Time;durP1;ratioP1;P1;durP2;ratioP2;P2;SDS_P1;SDS_P2;PMS_P1;PMS_P2;Temp;Humidity;BMP_temperature;BMP_pressure;BME280_temperature;BME280_humidity;BME280_pressure;Samples;Min_cycle;Max_cycle;Signal;HPM_P1;HPM_P2
2022/11/05 00:18:07;;;;;;;3.03;2.10;;;;;;;-4.83;69.40;96321.34;6173356;28;20529;-66
2022/11/05 00:28:01;;;;;;;2.85;1.92;;;;;;;-4.92;68.78;96334.31;6192295;28;20501;-65
2022/11/05 00:31:08;;;;;;;2.30;1.77;;;;;;;-5.06;69.31;96325.06;6169396;28;20476;-66
2022/11/05 00:34:12;;;;;;;2.25;2.05;;;;;;;-5.02;69.57;96341.25;6169080;28;20054;-66
2022/11/05 00:37:13;;;;;;;2.80;2.20;;;;;;;-5.03;69.72;96340.41;6156473;28;20099;-66
2022/11/05 00:40:15;;;;;;;1.83;1.10;;;;;;;-5.02;69.10;96331.84;6143729;28;20061;-66
2022/11/05 00:46:41;;;;;;;2.53;1.50;;;;;;;-5.00;69.34;96350.63;6144845;28;20475;-66
2022/11/05 00:49:46;;;;;;;2.83;1.60;;;;;;;-4.96;69.80;96367.69;6170101;28;20043;-66
2022/11/05 00:52:54;;;;;;;1.95;1.67;;;;;;;-4.94;69.42;96362.53;6167375;28;20489;-65
2022/11/05 00:55:59;;;;;;;2.28;1.70;;;;;;;-4.99;69.08;96372.84;6189853;28;20203;-65
2022/11/05 00:59:03;;;;;;;1.40;1.25;;;;;;;-5.04;69.71;96369.50;6168867;28;20492;-65
2022/11/05 01:02:06;;;;;;;1.85;1.35;;;;;;;-5.09;69.73;96361.03;6171511;28;20047;-66
2022/11/05 01:05:08;;;;;;;2.20;1.85;;;;;;;-5.13;69.57;96369.59;6189413;28;20050;-65
2022/11/05 01:08:14;;;;;;;1.95;1.75;;;;;;;-5.13;69.37;96374.72;6197305;28;20520;-66
2022/11/05 01:11:35;;;;;;;3.28;2.20;;;;;;;-5.18;69.80;96371.34;6193919;28;20536;-66
2022/11/05 01:14:37;;;;;;;2.15;1.67;;;;;;;-5.24;69.90;96377.44;6198839;28;20046;-66
2022/11/05 01:17:43;;;;;;;2.13;1.88;;;;;;;-5.31;69.82;96370.66;6207617;28;20046;-66
2022/11/05 01:20:45;;;;;;;2.15;1.90;;;;;;;-5.33;69.71;96380.06;6170879;28;20061;-66
2022/11/05 01:23:47;;;;;;;1.63;1.50;;;;;;;-5.36;70.15;96381.84;6171158;28;20133;-65
2022/11/05 01:26:49;;;;;;;2.58;1.67;;;;;;;-5.34;70.08;96392.94;6169786;28;20418;-67
2022/11/05 01:29:50;;;;;;;1.90;1.70;;;;;;;-5.26;70.18;96399.69;6172014;28;20039;-66
2022/11/05 01:32:51;;;;;;;3.50;1.98;;;;;;;-5.24;70.17;96395.38;6171281;28;20046;-66
2022/11/05 01:35:56;;;;;;;4.05;2.28;;;;;;;-5.18;70.01;96402.13;6191848;28;20046;-66
2022/11/05 01:39:00;;;;;;;2.13;1.92;;;;;;;-5.19;70.43;96411.56;6174750;28;20039;-66
2022/11/05 01:42:19;;;;;;;2.75;2.55;;;;;;;-5.19;70.08;96401.28;6169027;28;20050;-66
2022/11/05 01:45:27;;;;;;;2.70;2.38;;;;;;;-5.16;70.34;96404.69;6172434;28;20053;-66
2022/11/05 01:48:36;;;;;;;4.43;2.30;;;;;;;-5.13;70.45;96415.78;6169008;28;20038;-66
2022/11/05 01:51:39;;;;;;;3.17;2.63;;;;;;;-5.15;69.76;96401.25;6151569;28;21961;-65
2022/11/05 01:54:46;;;;;;;3.33;2.25;;;;;;;-5.10;69.93;96410.59;6169771;28;20047;-66
2022/11/05 01:57:51;;;;;;;2.63;2.28;;;;;;;-5.16;70.71;96409.84;6173507;28;20061;-66
2022/11/05 02:00:58;;;;;;;3.45;2.65;;;;;;;-5.26;70.51;96403.97;6192071;28;20042;-66
2022/11/05 02:04:06;;;;;;;2.55;1.65;;;;;;;-5.21;70.62;96412.44;6228025;28;20147;-66
2022/11/05 02:07:13;;;;;;;2.35;2.08;;;;;;;-5.23;70.75;96411.63;6190519;28;20141;-67
2022/11/05 02:10:16;;;;;;;2.30;2.08;;;;;;;-5.27;70.60;96428.72;6175646;28;20039;-66
2022/11/05 02:13:18;;;;;;;2.22;2.03;;;;;;;-5.43;70.99;96417.78;6172564;28;20050;-66
2022/11/05 02:16:33;;;;;;;2.80;2.42;;;;;;;-5.32;71.28;96437.34;6174825;28;20421;-66
2022/11/05 02:19:50;;;;;;;2.10;1.90;;;;;;;-5.34;70.79;96441.66;6175598;28;20039;-66
2022/11/05 02:23:15;;;;;;;3.65;2.70;;;;;;;-5.40;71.02;96447.69;6176567;28;20047;-66
2022/11/05 02:26:44;;;;;;;4.03;2.92;;;;;;;-5.49;71.50;96448.63;6174302;28;20123;-65
2022/11/05 02:30:12;;;;;;;4.07;2.45;;;;;;;-5.49;71.51;96451.19;6173956;28;20034;-67
2022/11/05 02:33:28;;;;;;;4.15;2.78;;;;;;;-5.55;71.33;96447.81;6179476;28;20108;-66
2022/11/05 02:36:45;;;;;;;4.07;3.10;;;;;;;-5.51;71.71;96449.50;6182231;28;20042;-66
2022/11/05 02:39:49;;;;;;;6.50;3.33;;;;;;;-5.46;71.81;96453.72;6193477;28;20434;-67
2022/11/05 02:43:29;;;;;;;4.97;3.10;;;;;;;-5.46;71.61;96448.59;6195043;28;20420;-66
2022/11/05 02:46:37;;;;;;;7.75;4.50;;;;;;;-5.53;72.44;96456.34;6224381;28;20056;-67
2022/11/05 02:50:06;;;;;;;9.35;5.18;;;;;;;-5.59;72.12;96462.38;6194972;28;20042;-67
2022/11/05 02:53:15;;;;;;;8.15;4.55;;;;;;;-5.66;71.96;96465.88;6183234;28;20045;-67
2022/11/05 02:56:29;;;;;;;5.15;3.63;;;;;;;-5.66;72.43;96455.59;6195585;28;20054;-67
2022/11/05 02:59:34;;;;;;;4.10;2.95;;;;;;;-5.76;72.69;96436.03;6190023;28;20054;-66
2022/11/05 03:02:35;;;;;;;5.80;3.60;;;;;;;-5.61;72.71;96453.84;6181635;28;20070;-66
2022/11/05 03:06:00;;;;;;;6.88;3.72;;;;;;;-5.70;72.52;96453.91;6169641;28;20410;-67
2022/11/05 03:09:04;;;;;;;5.78;3.85;;;;;;;-5.80;72.88;96457.41;6161480;28;20047;-66
2022/11/05 03:12:31;;;;;;;5.65;3.75;;;;;;;-5.73;73.27;96459.06;6176741;28;20043;-67
2022/11/05 03:15:56;;;;;;;4.65;3.85;;;;;;;-5.71;73.48;96467.59;6158277;28;20613;-66
2022/11/05 03:19:15;;;;;;;3.53;2.85;;;;;;;-5.65;73.38;96468.41;6150988;28;20674;-66
2022/11/05 03:22:33;;;;;;;4.72;2.92;;;;;;;-5.40;72.47;96469.91;6145611;28;20170;-66
2022/11/05 03:25:45;;;;;;;6.35;3.75;;;;;;;-5.29;72.18;96473.25;6148492;28;20502;-66
2022/11/05 03:28:57;;;;;;;5.35;4.05;;;;;;;-5.27;72.15;96479.19;6145360;28;20055;-66
2022/11/05 03:32:06;;;;;;;5.05;3.70;;;;;;;-5.24;72.28;96489.41;6168338;28;20129;-66
2022/11/05 03:35:15;;;;;;;8.65;4.70;;;;;;;-5.15;72.37;96485.91;6153743;28;20421;-66
2022/11/05 03:38:33;;;;;;;5.35;3.30;;;;;;;-5.09;72.17;96486.72;6145886;28;20054;-66
2022/11/05 03:41:45;;;;;;;4.60;3.90;;;;;;;-5.04;72.76;96489.22;6144252;28;20043;-66
2022/11/05 03:44:53;;;;;;;6.60;5.05;;;;;;;-5.02;72.62;96484.94;6147343;28;20055;-66
2022/11/05 03:48:00;;;;;;;8.70;5.20;;;;;;;-4.90;72.17;96492.50;6145155;28;20045;-66
2022/11/05 03:51:10;;;;;;;9.70;6.03;;;;;;;-4.78;72.53;96499.25;6147898;28;20053;-67
2022/11/05 03:54:15;;;;;;;10.55;6.13;;;;;;;-4.72;72.06;96493.19;6146556;28;20039;-66
2022/11/05 03:57:24;;;;;;;11.43;6.50;;;;;;;-4.72;72.10;96503.47;6144826;28;20039;-67
2022/11/05 04:00:26;;;;;;;10.25;6.50;;;;;;;-4.76;71.98;96502.63;6172454;28;20055;-66
2022/11/05 04:03:35;;;;;;;7.85;5.60;;;;;;;-4.75;72.53;96504.34;6168123;28;20050;-66
2022/11/05 04:13:24;;;;;;;5.10;3.70;;;;;;;-4.09;71.49;96512.09;6182041;28;20037;-67
2022/11/05 04:26:33;;;;;;;4.72;3.10;;;;;;;-2.19;67.99;96512.34;6142030;28;20047;-66
2022/11/05 04:30:22;;;;;;;5.65;3.58;;;;;;;-1.75;67.08;96515.72;6142096;28;20620;-66
2022/11/05 04:33:01;;;;;;;5.53;3.72;;;;;;;-1.35;66.84;96520.81;6149887;28;20055;-67
2022/11/05 04:36:06;;;;;;;7.13;4.18;;;;;;;-0.98;66.17;96523.34;6145976;28;20047;-67
2022/11/05 04:39:08;;;;;;;9.73;4.78;;;;;;;-0.59;65.40;96530.97;6141076;28;20054;-66
2022/11/05 04:42:09;;;;;;;7.80;4.75;;;;;;;-0.29;64.78;96524.13;6141110;28;20043;-67
2022/11/05 04:45:13;;;;;;;7.20;4.45;;;;;;;-0.10;64.11;96529.63;6143095;28;20047;-67
2022/11/05 04:48:15;;;;;;;5.35;2.90;;;;;;;0.10;63.71;96525.63;6153211;28;20046;-67
2022/11/05 04:51:17;;;;;;;3.55;2.55;;;;;;;0.26;63.33;96524.28;6166776;28;20086;-68
2022/11/05 04:54:23;;;;;;;3.17;2.88;;;;;;;0.54;62.68;96515.66;6167963;28;20104;-64
2022/11/05 04:57:26;;;;;;;2.65;2.40;;;;;;;0.83;62.09;96528.56;6171609;28;20105;-64
2022/11/05 05:00:30;;;;;;;4.43;3.17;;;;;;;1.07;61.49;96520.88;6170107;28;20054;-62
2022/11/05 05:03:33;;;;;;;3.88;2.45;;;;;;;1.15;61.20;96534.44;6177944;28;20050;-65
2022/11/05 05:06:35;;;;;;;3.05;2.63;;;;;;;1.21;60.98;96529.06;6193183;28;20913;-64
2022/11/05 05:09:36;;;;;;;3.35;2.42;;;;;;;1.32;60.95;96531.28;6194079;28;20196;-63
2022/11/05 05:12:41;;;;;;;5.70;4.00;;;;;;;1.38;60.27;96536.25;6201538;28;20119;-67
2022/11/05 05:15:42;;;;;;;6.30;3.88;;;;;;;1.43;60.62;96538.72;6193481;28;20058;-65
2022/11/05 05:18:49;;;;;;;6.68;3.90;;;;;;;1.50;60.11;96535.00;6167241;28;20138;-64
2022/11/05 05:21:53;;;;;;;6.90;3.85;;;;;;;1.54;59.78;96537.44;6175386;28;20046;-65
2022/11/05 05:24:58;;;;;;;6.65;3.97;;;;;;;1.59;59.68;96544.22;6175247;28;20114;-67
2022/11/05 05:28:00;;;;;;;4.10;3.40;;;;;;;1.68;59.36;96549.94;6169148;28;20091;-64
2022/11/05 05:31:02;;;;;;;6.30;3.72;;;;;;;1.78;59.38;96540.94;6172855;28;20034;-64
2022/11/05 05:34:04;;;;;;;5.82;3.00;;;;;;;1.95;58.89;96549.84;6169582;28;20046;-63
2022/11/05 05:37:05;;;;;;;3.17;2.53;;;;;;;2.05;57.34;96543.44;6186798;28;20133;-64
2022/11/05 05:40:08;;;;;;;3.30;2.90;;;;;;;2.04;56.94;96536.56;6172632;28;20430;-63
2022/11/05 05:43:09;;;;;;;7.05;3.88;;;;;;;2.23;56.90;96547.94;6168384;28;20509;-63
2022/11/05 05:46:17;;;;;;;6.13;3.28;;;;;;;2.54;56.39;96554.56;6172561;28;20050;-64
2022/11/05 05:49:19;;;;;;;9.85;3.90;;;;;;;2.80;55.52;96553.59;6174450;28;20429;-64
2022/11/05 05:52:22;;;;;;;3.97;3.53;;;;;;;3.04;54.66;96546.56;6177458;28;20390;-64
2022/11/05 05:55:26;;;;;;;4.60;3.10;;;;;;;3.32;54.18;96550.66;6174152;28;20041;-62
2022/11/05 05:58:32;;;;;;;4.00;3.22;;;;;;;3.63;53.11;96555.41;6181046;28;20053;-62
2022/11/05 06:01:34;;;;;;;4.20;3.28;;;;;;;4.03;52.56;96559.72;6179787;28;20058;-63
2022/11/05 06:04:38;;;;;;;5.53;3.53;;;;;;;4.51;51.76;96562.81;6155502;28;20055;-63
2022/11/05 06:07:42;;;;;;;4.53;3.17;;;;;;;5.05;50.67;96566.38;6153307;28;20073;-64
2022/11/05 06:10:51;;;;;;;6.00;3.65;;;;;;;5.57;49.69;96562.97;6147495;28;20043;-64
2022/11/05 06:13:53;;;;;;;7.22;4.32;;;;;;;5.93;48.16;96562.91;6148642;28;20046;-64
2022/11/05 06:16:57;;;;;;;4.15;3.13;;;;;;;6.70;47.04;96570.16;6148333;28;20104;-63
2022/11/05 06:19:59;;;;;;;4.22;3.25;;;;;;;7.70;45.02;96579.41;6148649;28;20446;-64
2022/11/05 06:23:01;;;;;;;4.18;2.70;;;;;;;8.76;42.20;96579.19;6152964;28;20062;-64
2022/11/05 06:26:04;;;;;;;5.00;3.38;;;;;;;9.13;40.63;96564.59;6149856;28;20043;-63
2022/11/05 06:29:07;;;;;;;3.45;2.38;;;;;;;10.23;39.67;96580.09;6151854;28;20047;-64
2022/11/05 06:32:14;;;;;;;3.78;2.33;;;;;;;12.32;36.65;96583.53;6159606;28;20505;-65
2022/11/05 06:35:15;;;;;;;2.47;2.05;;;;;;;15.36;32.35;96577.03;6152400;28;20050;-65
2022/11/05 06:38:17;;;;;;;2.63;2.15;;;;;;;18.31;27.64;96569.44;6152987;28;20126;-63
2022/11/05 06:41:19;;;;;;;3.75;1.98;;;;;;;17.71;27.61;96577.19;6156481;28;20529;-66
2022/11/05 06:44:21;;;;;;;1.92;1.70;;;;;;;16.55;27.82;96563.47;6147632;28;20051;-64
2022/11/05 06:47:25;;;;;;;2.15;1.77;;;;;;;16.14;28.13;96565.50;6155665;28;20042;-64
2022/11/05 06:50:32;;;;;;;2.22;1.73;;;;;;;17.10;26.72;96561.88;6202579;28;20041;-64
2022/11/05 06:53:34;;;;;;;2.63;1.90;;;;;;;20.39;23.31;96569.88;6173150;28;20129;-65
2022/11/05 06:56:41;;;;;;;2.20;1.77;;;;;;;21.64;22.38;96556.84;6187303;28;20077;-65
2022/11/05 06:59:48;;;;;;;2.53;1.60;;;;;;;20.69;23.41;96575.56;6248967;28;20057;-63
2022/11/05 07:02:54;;;;;;;4.03;1.38;;;;;;;18.89;24.01;96577.84;6172362;28;20058;-65
2022/11/05 07:05:59;;;;;;;2.13;1.70;;;;;;;16.53;26.76;96570.75;6201722;28;20054;-65
2022/11/05 07:09:00;;;;;;;2.08;1.50;;;;;;;15.09;28.15;96567.03;6200694;28;20066;-64
2022/11/05 07:12:06;;;;;;;2.53;1.95;;;;;;;13.63;29.65;96556.41;6199250;28;20049;-64
2022/11/05 07:15:08;;;;;;;3.80;1.90;;;;;;;12.44;30.47;96558.84;6194611;28;20047;-63
2022/11/05 07:18:10;;;;;;;4.53;2.67;;;;;;;11.90;31.59;96567.38;6189605;28;20121;-64
2022/11/05 07:21:14;;;;;;;3.85;2.38;;;;;;;11.35;31.95;96560.88;6202393;28;20055;-72
2022/11/05 07:24:15;;;;;;;2.83;1.92;;;;;;;10.24;32.68;96566.00;6186690;28;20137;-65
2022/11/05 07:27:19;;;;;;;3.47;2.03;;;;;;;9.32;34.21;96569.50;6174803;28;20039;-66
2022/11/05 07:30:24;;;;;;;3.35;1.70;;;;;;;8.67;34.67;96545.66;6171464;28;20046;-71
2022/11/05 07:33:25;;;;;;;4.45;2.78;;;;;;;7.80;36.21;96543.91;6176782;28;20042;-72
2022/11/05 07:36:29;;;;;;;2.47;2.10;;;;;;;7.46;37.06;96551.13;6182843;28;20047;-67
2022/11/05 07:39:31;;;;;;;3.35;2.45;;;;;;;7.06;36.93;96531.63;6171386;28;20245;-71
2022/11/05 07:42:37;;;;;;;3.58;2.67;;;;;;;6.62;37.90;96548.81;6213689;28;20447;-74
2022/11/05 07:45:48;;;;;;;3.58;2.17;;;;;;;6.61;38.65;96547.13;6222373;28;20042;-75
2022/11/05 07:48:52;;;;;;;3.90;2.45;;;;;;;7.05;37.68;96551.69;6212022;28;20040;-65
2022/11/05 07:51:53;;;;;;;5.38;3.65;;;;;;;7.04;37.97;96565.69;6215231;28;20047;-67
2022/11/05 07:54:58;;;;;;;3.17;2.85;;;;;;;6.70;38.39;96564.09;6212583;28;20062;-65
2022/11/05 07:57:59;;;;;;;4.05;3.03;;;;;;;6.54;38.93;96561.47;6215005;28;20189;-66
2022/11/05 08:01:03;;;;;;;4.40;2.42;;;;;;;6.40;39.37;96564.00;6185583;28;20034;-65
2022/11/05 08:04:07;;;;;;;2.67;2.13;;;;;;;6.40;39.31;96574.44;6200602;28;20318;-64
2022/11/05 08:07:08;;;;;;;5.10;1.90;;;;;;;6.41;38.95;96578.72;6188550;28;20043;-67
2022/11/05 08:10:12;;;;;;;3.03;2.22;;;;;;;6.47;39.00;96571.41;6170031;28;20129;-65
2022/11/05 08:13:16;;;;;;;3.45;2.42;;;;;;;6.45;39.20;96572.41;6174266;28;20145;-67
2022/11/05 08:16:18;;;;;;;3.42;2.33;;;;;;;6.43;39.22;96574.28;6153155;28;20422;-66
2022/11/05 08:19:22;;;;;;;3.10;2.40;;;;;;;6.21;40.21;96571.94;6149360;28;20043;-66
2022/11/05 08:22:23;;;;;;;;;;;;;;;6.09;40.31;96578.66;6163697;28;20112;-67
2022/11/05 08:25:27;;;;;;;5.72;3.10;;;;;;;5.91;40.56;96576.94;6158712;28;20385;-66
2022/11/05 08:28:32;;;;;;;3.60;2.50;;;;;;;5.71;41.16;96580.56;6154645;28;20049;-67
2022/11/05 08:31:36;;;;;;;3.83;2.90;;;;;;;5.56;41.58;96584.78;6150111;28;20038;-67
2022/11/05 08:34:39;;;;;;;3.03;2.42;;;;;;;5.52;41.78;96584.09;6149578;28;20506;-66
2022/11/05 08:37:41;;;;;;;3.25;2.70;;;;;;;5.61;41.88;96590.63;6156486;28;20207;-66
2022/11/05 08:40:53;;;;;;;3.83;2.78;;;;;;;5.62;41.87;96597.53;6219578;28;20050;-73
2022/11/05 08:43:57;;;;;;;4.78;3.78;;;;;;;5.43;41.78;96591.50;6201655;28;20051;-72
2022/11/05 08:47:01;;;;;;;3.63;2.72;;;;;;;5.32;42.51;96590.28;6220495;28;20048;-73
2022/11/05 08:50:05;;;;;;;3.25;2.80;;;;;;;5.39;42.59;96590.81;6237368;28;20036;-71
2022/11/05 08:53:10;;;;;;;7.50;4.70;;;;;;;5.32;42.96;96587.69;6221743;28;20492;-73
2022/11/05 08:56:15;;;;;;;5.50;3.55;;;;;;;5.33;43.12;96581.53;6193612;28;20452;-72
2022/11/05 08:59:19;;;;;;;5.30;4.05;;;;;;;5.26;43.09;96595.78;6194739;28;20045;-72
2022/11/05 09:02:22;;;;;;;;;;;;;;;5.30;42.95;96586.91;6276464;28;20054;-72
2022/11/05 09:05:24;;;;;;;4.68;3.15;;;;;;;5.01;43.34;96595.25;6189440;28;19971;-72
2022/11/05 09:08:28;;;;;;;4.40;3.35;;;;;;;4.71;43.78;96596.63;6215759;28;20123;-74
2022/11/05 09:11:36;;;;;;;4.95;3.30;;;;;;;4.39;44.37;96594.66;6208849;28;22021;-71
2022/11/05 09:14:38;;;;;;;5.22;3.65;;;;;;;4.21;45.07;96598.91;6189270;28;20043;-72
2022/11/05 09:17:44;;;;;;;4.47;3.33;;;;;;;4.08;45.30;96602.94;6199038;28;20042;-71
2022/11/05 09:20:46;;;;;;;4.43;3.33;;;;;;;3.88;45.85;96595.97;6195351;28;20049;-71
2022/11/05 09:23:59;;;;;;;2.53;2.33;;;;;;;3.87;46.09;96600.34;6194662;28;20058;-71
2022/11/05 09:27:05;;;;;;;3.25;2.88;;;;;;;3.76;46.39;96598.19;6178289;28;20529;-72
2022/11/05 09:30:10;;;;;;;2.90;2.60;;;;;;;3.72;46.49;96604.44;6181031;28;20061;-72
2022/11/05 09:33:21;;;;;;;3.88;2.67;;;;;;;3.71;46.50;96597.56;6180195;28;20057;-72
2022/11/05 09:36:24;;;;;;;3.63;2.80;;;;;;;3.71;46.72;96599.28;6175894;28;20039;-72
2022/11/05 09:39:26;;;;;;;5.75;3.42;;;;;;;3.74;46.79;96602.63;6181442;28;20046;-72
2022/11/05 09:42:38;;;;;;;4.35;3.05;;;;;;;3.76;47.13;96610.38;6161996;28;20136;-71
2022/11/05 09:45:40;;;;;;;6.93;4.43;;;;;;;3.82;46.88;96602.28;6195284;28;20065;-72
2022/11/05 09:48:50;;;;;;;6.10;4.15;;;;;;;3.81;47.08;96605.81;6175852;28;20042;-72
2022/11/05 09:51:57;;;;;;;6.75;4.78;;;;;;;3.80;47.37;96601.53;6191483;28;20382;-71
2022/11/05 09:54:58;;;;;;;5.70;4.18;;;;;;;3.91;47.29;96599.31;6188532;28;20137;-74
2022/11/05 09:58:11;;;;;;;4.45;3.53;;;;;;;3.99;47.14;96605.06;6222503;28;20038;-68
2022/11/05 10:01:24;;;;;;;5.13;3.20;;;;;;;3.93;46.94;96597.47;6191891;28;20058;-66
2022/11/05 10:04:32;;;;;;;3.92;2.95;;;;;;;3.65;47.39;96599.56;6180258;28;20059;-71
2022/11/05 10:07:46;;;;;;;2.83;2.50;;;;;;;3.54;47.95;96608.69;6167398;28;20055;-66
2022/11/05 10:10:58;;;;;;;3.72;2.53;;;;;;;3.40;48.15;96611.00;6157889;28;20062;-66
2022/11/05 10:14:12;;;;;;;4.90;2.85;;;;;;;3.35;48.46;96607.72;6151941;28;22524;-66
2022/11/05 10:17:29;;;;;;;3.80;2.60;;;;;;;3.33;48.33;96609.53;6156411;28;20066;-72
2022/11/05 10:20:39;;;;;;;3.50;3.10;;;;;;;3.11;48.67;96613.00;6152615;28;20043;-65
2022/11/05 10:23:44;;;;;;;3.40;3.10;;;;;;;3.04;49.21;96619.34;6154614;28;20043;-72
2022/11/05 10:26:53;;;;;;;3.88;3.42;;;;;;;2.99;49.34;96631.66;6150635;28;20040;-67
2022/11/05 10:29:59;;;;;;;3.78;2.90;;;;;;;2.96;49.39;96621.38;6152065;28;20410;-68
2022/11/05 10:33:03;;;;;;;;;;;;;;;2.97;49.30;96623.06;6152324;28;20058;-67
2022/11/05 10:36:09;;;;;;;4.47;2.97;;;;;;;2.95;49.47;96619.72;6158467;28;19944;-67
2022/11/05 10:39:17;;;;;;;4.22;3.58;;;;;;;2.94;49.47;96623.19;6157883;28;20146;-67
2022/11/05 10:42:36;;;;;;;4.05;3.67;;;;;;;2.86;49.84;96620.03;6156463;28;20058;-67
2022/11/05 10:46:17;;;;;;;3.70;3.05;;;;;;;2.80;50.31;96630.66;6161356;28;20121;-67
2022/11/05 10:50:03;;;;;;;3.72;3.10;;;;;;;2.66;50.56;96624.25;6141079;28;20051;-66
2022/11/05 10:53:19;;;;;;;3.95;3.20;;;;;;;2.63;51.13;96628.72;6200933;28;20065;-67
2022/11/05 10:56:33;;;;;;;4.00;3.28;;;;;;;2.62;51.25;96642.59;6198025;28;20065;-67
2022/11/05 10:59:37;;;;;;;3.55;2.83;;;;;;;2.53;51.16;96633.41;6158677;28;20047;-66
2022/11/05 11:02:38;;;;;;;5.45;3.28;;;;;;;2.37;51.16;96647.84;6155469;28;20525;-66
2022/11/05 11:05:42;;;;;;;6.82;4.03;;;;;;;2.21;50.98;96648.41;6185308;28;20497;-67
2022/11/05 11:08:46;;;;;;;7.63;4.55;;;;;;;2.00;51.74;96630.97;6183881;28;20035;-68
2022/11/05 11:11:58;;;;;;;11.40;5.13;;;;;;;2.00;51.65;96641.34;6188685;28;20051;-67
2022/11/05 11:15:27;;;;;;;8.15;4.65;;;;;;;1.80;52.05;96632.50;6185407;28;20034;-66
2022/11/05 11:18:36;;;;;;;6.03;4.30;;;;;;;1.68;52.69;96642.47;6188157;28;20390;-67
2022/11/05 11:21:44;;;;;;;6.13;3.17;;;;;;;1.61;52.77;96644.38;6185307;28;20042;-67
2022/11/05 11:24:53;;;;;;;4.00;2.65;;;;;;;1.44;52.89;96638.91;6185308;28;20091;-66
2022/11/05 11:28:05;;;;;;;4.22;2.47;;;;;;;1.27;53.49;96640.28;6185204;28;20035;-66
2022/11/05 11:31:13;;;;;;;3.33;2.08;;;;;;;1.28;53.31;96643.75;6185712;28;20042;-66
2022/11/05 11:34:27;;;;;;;4.78;2.55;;;;;;;1.14;53.69;96646.78;6187453;28;20050;-66
2022/11/05 11:37:40;;;;;;;4.15;2.50;;;;;;;1.08;53.53;96649.56;6178766;28;20062;-67
2022/11/05 11:40:42;;;;;;;9.70;4.05;;;;;;;0.91;54.01;96639.72;6189320;28;20076;-66
2022/11/05 11:43:45;;;;;;;14.80;7.57;;;;;;;0.83;54.44;96652.88;6209349;28;20136;-67
2022/11/05 11:46:51;;;;;;;13.82;7.38;;;;;;;0.64;55.38;96657.75;6197068;28;20509;-66
2022/11/05 11:49:58;;;;;;;6.60;4.22;;;;;;;0.44;55.72;96645.38;6192402;28;20046;-67
2022/11/05 11:53:20;;;;;;;5.60;3.58;;;;;;;0.51;56.54;96660.75;6193985;28;20452;-67
2022/11/05 11:56:25;;;;;;;8.75;5.32;;;;;;;0.49;56.27;96665.13;6207946;28;20562;-66
2022/11/05 11:59:29;;;;;;;9.90;4.90;;;;;;;0.50;56.11;96669.41;6204292;28;20046;-66
2022/11/05 12:02:45;;;;;;;6.43;4.10;;;;;;;0.42;56.46;96674.78;6193598;28;20057;-67
2022/11/05 12:05:59;;;;;;;6.78;4.43;;;;;;;0.22;56.67;96671.00;6165914;28;20125;-67
2022/11/05 12:09:39;;;;;;;9.13;4.10;;;;;;;0.16;57.49;96680.69;6165040;28;20586;-67
2022/11/05 12:13:07;;;;;;;4.43;3.25;;;;;;;0.06;57.78;96674.03;6167950;28;20054;-67
2022/11/05 12:16:16;;;;;;;4.03;2.92;;;;;;;-0.06;57.55;96686.44;6169616;28;20054;-67
2022/11/05 12:19:42;;;;;;;4.22;3.00;;;;;;;-0.21;57.89;96686.81;6166333;28;20046;-67
2022/11/05 12:23:20;;;;;;;5.00;3.20;;;;;;;-0.32;58.63;96679.31;6163298;28;20177;-70
2022/11/05 12:26:26;;;;;;;7.78;4.28;;;;;;;-0.66;59.13;96657.78;6161387;28;20128;-69
2022/11/05 12:29:39;;;;;;;8.73;4.18;;;;;;;-0.51;59.37;96699.63;6167493;28;20516;-71
2022/11/05 12:33:09;;;;;;;7.90;4.38;;;;;;;-0.51;59.53;96693.56;6179416;28;20045;-70
2022/11/05 12:36:11;;;;;;;7.50;4.03;;;;;;;-0.56;59.47;96700.63;6160763;28;20588;-65
2022/11/05 12:39:25;;;;;;;9.00;4.05;;;;;;;-0.60;59.60;96704.13;6163957;28;20047;-65
2022/11/05 12:42:35;;;;;;;7.10;3.90;;;;;;;-0.76;59.22;96703.66;6169816;28;20051;-66
2022/11/05 12:46:24;;;;;;;5.95;3.25;;;;;;;-0.75;60.39;96710.53;6235519;28;20060;-66
2022/11/05 12:49:33;;;;;;;7.03;4.13;;;;;;;-0.87;60.46;96716.81;6156858;28;20043;-66
2022/11/05 12:53:31;;;;;;;4.90;3.55;;;;;;;-0.92;60.02;96729.81;6169157;28;20507;-65
2022/11/05 12:56:44;;;;;;;6.35;3.78;;;;;;;-1.01;60.68;96727.44;6217832;28;20413;-66
2022/11/05 13:00:17;;;;;;;4.65;3.08;;;;;;;-1.04;60.93;96730.09;6217005;28;20053;-66
2022/11/05 13:03:31;;;;;;;4.05;3.33;;;;;;;-1.31;61.63;96741.84;6211801;28;20057;-66
2022/11/05 13:06:40;;;;;;;7.82;4.13;;;;;;;-1.24;61.11;96733.09;6291951;28;20106;-64
2022/11/05 13:10:09;;;;;;;6.80;4.28;;;;;;;-1.37;62.23;96747.13;6294130;28;20087;-65
2022/11/05 13:13:28;;;;;;;4.85;4.03;;;;;;;-1.58;62.22;96753.56;6286264;28;20048;-65
2022/11/05 13:16:40;;;;;;;7.03;4.18;;;;;;;-1.64;62.59;96758.84;6286252;28;20090;-64
2022/11/05 13:20:01;;;;;;;7.47;5.10;;;;;;;-1.65;62.71;96763.13;6285397;28;20051;-65
2022/11/05 13:23:30;;;;;;;4.82;3.67;;;;;;;-1.63;63.03;96761.38;6279801;28;21278;-65
2022/11/05 13:26:47;;;;;;;8.55;3.92;;;;;;;-1.70;62.76;96764.09;6279201;28;20052;-64
2022/11/05 13:30:04;;;;;;;6.90;4.13;;;;;;;-1.61;62.31;96769.09;6280206;28;20157;-66
2022/11/05 13:33:20;;;;;;;6.88;3.72;;;;;;;-1.90;62.88;96761.88;6282017;28;20055;-65
2022/11/05 13:40:05;;;;;;;5.78;3.97;;;;;;;-2.01;63.24;96769.78;6286302;28;20423;-65
2022/11/05 13:43:24;;;;;;;6.75;4.18;;;;;;;-2.09;63.83;96771.66;6289558;28;20053;-64
2022/11/05 13:46:44;;;;;;;8.45;4.13;;;;;;;-2.21;63.71;96767.53;6233738;28;20436;-65
2022/11/05 13:49:57;;;;;;;6.15;3.67;;;;;;;-2.18;63.88;96771.78;6256842;28;20061;-64
2022/11/05 13:53:32;;;;;;;7.97;4.40;;;;;;;-2.33;63.80;96768.59;6293958;28;20137;-65
2022/11/05 13:56:39;;;;;;;;;;;;;;;-2.40;63.94;96772.16;6229313;28;20424;-66
2022/11/05 14:00:02;;;;;;;19.17;7.30;;;;;;;-2.54;64.74;96779.25;6290306;28;19935;-65
2022/11/05 14:03:19;;;;;;;12.40;6.55;;;;;;;-2.57;64.90;96779.28;6192744;28;20459;-65
2022/11/05 14:06:32;;;;;;;6.80;4.78;;;;;;;-2.68;64.95;96776.84;6234024;28;20054;-65
2022/11/05 14:09:36;;;;;;;7.25;5.07;;;;;;;-2.72;64.42;96781.22;6216475;28;20533;-65
2022/11/05 14:12:48;;;;;;;7.50;4.80;;;;;;;-2.88;65.24;96789.16;6281928;28;20053;-65
2022/11/05 14:16:09;;;;;;;7.30;4.95;;;;;;;-2.88;65.37;96792.59;6286898;28;20047;-65
2022/11/05 14:19:21;;;;;;;8.13;5.00;;;;;;;-3.01;65.92;96793.59;6289062;28;20041;-64
2022/11/05 14:22:31;;;;;;;7.72;5.00;;;;;;;-3.16;65.86;96804.94;6289374;28;20545;-65
2022/11/05 14:25:35;;;;;;;5.93;4.68;;;;;;;-3.26;65.86;96809.34;6287113;28;20044;-64
2022/11/05 14:29:02;;;;;;;8.95;5.55;;;;;;;-3.47;66.46;96782.13;6289162;28;20040;-65
2022/11/05 14:32:26;;;;;;;7.93;5.60;;;;;;;-3.52;66.84;96808.78;6276025;28;20048;-66
2022/11/05 14:35:40;;;;;;;11.40;5.30;;;;;;;-3.64;67.35;96808.03;6286821;28;20049;-65
2022/11/05 14:38:53;;;;;;;9.55;5.68;;;;;;;-3.59;67.18;96815.72;6293092;28;20499;-65
2022/11/05 14:42:09;;;;;;;12.32;5.30;;;;;;;-3.74;67.29;96821.84;6292081;28;20032;-65
2022/11/05 14:45:20;;;;;;;19.10;9.20;;;;;;;-3.91;67.67;96818.56;6287874;28;20835;-64
2022/11/05 14:48:42;;;;;;;17.35;8.98;;;;;;;-4.02;67.87;96825.53;6285732;28;20056;-66
2022/11/05 14:51:50;;;;;;;11.68;6.85;;;;;;;-4.15;68.16;96819.66;6285501;28;20036;-65
2022/11/05 14:54:59;;;;;;;14.65;6.05;;;;;;;-4.24;68.22;96819.72;6277581;28;20063;-64
2022/11/05 14:58:23;;;;;;;13.40;6.65;;;;;;;-4.28;68.36;96824.00;6296919;28;20525;-66
2022/11/05 15:01:35;;;;;;;17.73;8.05;;;;;;;-4.33;69.07;96820.63;6279905;28;20128;-65
2022/11/05 15:04:44;;;;;;;19.67;9.98;;;;;;;-4.40;69.07;96829.25;6263024;28;20061;-66
2022/11/05 15:07:57;;;;;;;20.02;10.90;;;;;;;-4.39;69.81;96841.22;6296247;28;20053;-66
2022/11/05 15:11:08;;;;;;;16.30;8.93;;;;;;;-4.36;69.30;96833.50;6297906;28;20056;-65
2022/11/05 15:14:19;;;;;;;30.73;11.88;;;;;;;-4.33;69.01;96836.03;6286440;28;20467;-65
2022/11/05 15:17:31;;;;;;;24.38;11.18;;;;;;;-4.30;69.19;96836.03;6261103;28;20067;-66
2022/11/05 15:20:38;;;;;;;24.90;11.57;;;;;;;-4.29;69.20;96832.59;6267717;28;20049;-65
2022/11/05 15:23:45;;;;;;;24.33;10.32;;;;;;;-4.28;69.30;96835.13;6266718;28;20592;-65
2022/11/05 15:27:15;;;;;;;20.90;10.25;;;;;;;-4.34;69.52;96831.78;6276546;28;20045;-64
2022/11/05 15:30:20;;;;;;;23.00;11.10;;;;;;;-4.39;68.87;96842.06;6271584;28;20050;-64
2022/11/05 15:33:24;;;;;;;25.17;11.25;;;;;;;-4.51;69.41;96832.72;6268655;28;20499;-65
2022/11/05 15:36:30;;;;;;;28.15;12.45;;;;;;;-4.53;69.58;96847.31;6297184;28;20040;-64
2022/11/05 15:39:41;;;;;;;49.80;18.23;;;;;;;-4.64;69.72;96841.38;6273037;28;20542;-66
2022/11/05 15:42:42;;;;;;;43.88;16.00;;;;;;;-4.79;69.57;96833.75;6298042;28;20053;-66